sensor_id;sensor_type;location;lat;lon;timestamp;pressure;altitude;pressure_sealevel;temperature;humidity
55486;BME280;71262;-25.924;28.194;2023-08-31T00:00:23;85642.08;;;20.08;43.42
55486;BME280;71262;-25.924;28.194;2023-08-31T00:02:48;85639.13;;;20.29;43.56
55486;BME280;71262;-25.924;28.194;2023-08-31T00:05:13;85633.06;;;20.27;43.65
55486;BME280;71262;-25.924;28.194;2023-08-31T00:07:38;85629.31;;;20.27;43.66
55486;BME280;71262;-25.924;28.194;2023-08-31T00:10:05;85630.38;;;20.30;43.67
55486;BME280;71262;-25.924;28.194;2023-08-31T00:12:28;85627.63;;;20.31;43.68
55486;BME280;71262;-25.924;28.194;2023-08-31T00:14:53;85625.79;;;20.04;43.70
55486;BME280;71262;-25.924;28.194;2023-08-31T00:17:19;85623.36;;;20.34;43.69
55486;BME280;71262;-25.924;28.194;2023-08-31T00:19:44;85620.30;;;20.03;43.75
55486;BME280;71262;-25.924;28.194;2023-08-31T00:22:09;85618.00;;;20.30;43.78
55486;BME280;71262;-25.924;28.194;2023-08-31T00:24:34;85619.44;;;20.33;43.72
55486;BME280;71262;-25.924;28.194;2023-08-31T00:26:59;85621.76;;;20.03;43.84
55486;BME280;71262;-25.924;28.194;2023-08-31T00:29:24;85619.85;;;20.27;43.88
55486;BME280;71262;-25.924;28.194;2023-08-31T00:31:49;85611.96;;;20.01;43.90
55486;BME280;71262;-25.924;28.194;2023-08-31T00:34:14;85608.71;;;20.50;43.76
55486;BME280;71262;-25.924;28.194;2023-08-31T00:36:39;85608.50;;;20.05;43.80
55486;BME280;71262;-25.924;28.194;2023-08-31T00:39:05;85613.37;;;20.31;43.74
55486;BME280;71262;-25.924;28.194;2023-08-31T00:41:30;85614.30;;;20.07;43.73
55486;BME280;71262;-25.924;28.194;2023-08-31T00:43:55;85613.14;;;20.33;43.71
55486;BME280;71262;-25.924;28.194;2023-08-31T00:46:20;85610.35;;;20.00;43.80
55486;BME280;71262;-25.924;28.194;2023-08-31T00:48:45;85610.19;;;19.96;43.86
55486;BME280;71262;-25.924;28.194;2023-08-31T00:51:10;85607.57;;;20.29;43.72
55486;BME280;71262;-25.924;28.194;2023-08-31T00:53:35;85604.38;;;20.02;43.70
55486;BME280;71262;-25.924;28.194;2023-08-31T00:56:00;85600.63;;;20.28;43.69
55486;BME280;71262;-25.924;28.194;2023-08-31T00:58:25;85600.83;;;20.00;43.70
55486;BME280;71262;-25.924;28.194;2023-08-31T01:00:58;85601.65;;;20.26;43.68
55486;BME280;71262;-25.924;28.194;2023-08-31T01:03:24;85602.24;;;20.50;43.65
55486;BME280;71262;-25.924;28.194;2023-08-31T01:05:49;85601.06;;;19.95;43.69
55486;BME280;71262;-25.924;28.194;2023-08-31T01:08:16;85598.10;;;20.24;43.61
55486;BME280;71262;-25.924;28.194;2023-08-31T01:10:42;85593.88;;;19.76;43.61
55486;BME280;71262;-25.924;28.194;2023-08-31T01:13:02;85591.73;;;20.23;43.51
55486;BME280;71262;-25.924;28.194;2023-08-31T01:15:21;85588.78;;;20.20;43.62
55486;BME280;71262;-25.924;28.194;2023-08-31T01:17:50;85586.33;;;20.20;43.60
55486;BME280;71262;-25.924;28.194;2023-08-31T01:20:12;85583.26;;;20.22;43.61
55486;BME280;71262;-25.924;28.194;2023-08-31T01:22:42;85582.14;;;19.97;43.54
55486;BME280;71262;-25.924;28.194;2023-08-31T01:25:02;85580.73;;;20.21;43.58
55486;BME280;71262;-25.924;28.194;2023-08-31T01:27:26;85579.84;;;20.18;43.60
55486;BME280;71262;-25.924;28.194;2023-08-31T01:29:52;85577.75;;;20.10;43.70
55486;BME280;71262;-25.924;28.194;2023-08-31T01:32:16;85574.89;;;20.15;43.62
55486;BME280;71262;-25.924;28.194;2023-08-31T01:34:41;85572.40;;;19.90;43.59
55486;BME280;71262;-25.924;28.194;2023-08-31T01:37:12;85570.82;;;20.08;43.69
55486;BME280;71262;-25.924;28.194;2023-08-31T01:39:37;85569.94;;;20.10;43.67
55486;BME280;71262;-25.924;28.194;2023-08-31T01:42:00;85572.16;;;20.15;43.57
55486;BME280;71262;-25.924;28.194;2023-08-31T01:44:22;85572.67;;;19.84;43.65
55486;BME280;71262;-25.924;28.194;2023-08-31T01:46:51;85568.31;;;20.10;43.64
55486;BME280;71262;-25.924;28.194;2023-08-31T01:49:12;85569.38;;;20.06;43.68
55486;BME280;71262;-25.924;28.194;2023-08-31T01:51:37;85566.29;;;20.10;43.60
55486;BME280;71262;-25.924;28.194;2023-08-31T01:54:03;85561.32;;;20.09;43.58
55486;BME280;71262;-25.924;28.194;2023-08-31T01:56:27;85562.68;;;19.81;43.58
55486;BME280;71262;-25.924;28.194;2023-08-31T01:58:52;85561.78;;;20.06;43.61
55486;BME280;71262;-25.924;28.194;2023-08-31T02:01:17;85562.19;;;20.04;43.61
55486;BME280;71262;-25.924;28.194;2023-08-31T02:03:42;85562.97;;;20.01;43.62
55486;BME280;71262;-25.924;28.194;2023-08-31T02:06:08;85563.07;;;19.78;43.55
55486;BME280;71262;-25.924;28.194;2023-08-31T02:08:33;85563.66;;;19.84;43.39
55486;BME280;71262;-25.924;28.194;2023-08-31T02:10:58;85562.65;;;20.09;43.41
55486;BME280;71262;-25.924;28.194;2023-08-31T02:13:23;85561.54;;;20.08;43.36
55486;BME280;71262;-25.924;28.194;2023-08-31T02:15:52;85561.00;;;20.02;43.44
55486;BME280;71262;-25.924;28.194;2023-08-31T02:18:13;85561.72;;;20.02;43.39
55486;BME280;71262;-25.924;28.194;2023-08-31T02:20:38;85560.73;;;20.03;43.36
55486;BME280;71262;-25.924;28.194;2023-08-31T02:23:03;85557.95;;;20.00;43.37
55486;BME280;71262;-25.924;28.194;2023-08-31T02:25:28;85554.93;;;19.96;43.48
55486;BME280;71262;-25.924;28.194;2023-08-31T02:27:53;85555.87;;;19.94;43.51
55486;BME280;71262;-25.924;28.194;2023-08-31T02:30:18;85554.16;;;19.95;43.46
55486;BME280;71262;-25.924;28.194;2023-08-31T02:32:44;85552.49;;;19.98;43.40
55486;BME280;71262;-25.924;28.194;2023-08-31T02:35:09;85551.91;;;19.95;43.46
55486;BME280;71262;-25.924;28.194;2023-08-31T02:37:34;85553.02;;;19.90;43.56
55486;BME280;71262;-25.924;28.194;2023-08-31T02:39:59;85554.17;;;19.63;43.53
55486;BME280;71262;-25.924;28.194;2023-08-31T02:42:24;85553.53;;;19.86;43.62
55486;BME280;71262;-25.924;28.194;2023-08-31T02:44:52;85551.02;;;19.60;43.62
55486;BME280;71262;-25.924;28.194;2023-08-31T02:47:14;85550.01;;;19.90;43.57
55486;BME280;71262;-25.924;28.194;2023-08-31T02:49:39;85551.59;;;19.63;43.66
55486;BME280;71262;-25.924;28.194;2023-08-31T02:52:04;85550.45;;;19.59;43.70
55486;BME280;71262;-25.924;28.194;2023-08-31T02:54:29;85548.09;;;19.91;43.61
55486;BME280;71262;-25.924;28.194;2023-08-31T02:56:54;85545.67;;;19.63;43.61
55486;BME280;71262;-25.924;28.194;2023-08-31T02:59:19;85545.62;;;19.88;43.63
55486;BME280;71262;-25.924;28.194;2023-08-31T03:01:44;85542.55;;;19.85;43.67
55486;BME280;71262;-25.924;28.194;2023-08-31T03:04:09;85539.61;;;19.85;43.63
55486;BME280;71262;-25.924;28.194;2023-08-31T03:06:35;85540.03;;;19.83;43.68
55486;BME280;71262;-25.924;28.194;2023-08-31T03:09:00;85542.90;;;19.85;43.66
55486;BME280;71262;-25.924;28.194;2023-08-31T03:11:25;85543.74;;;19.60;43.61
55486;BME280;71262;-25.924;28.194;2023-08-31T03:13:50;85542.30;;;19.86;43.69
55486;BME280;71262;-25.924;28.194;2023-08-31T03:16:15;85539.87;;;19.87;43.61
55486;BME280;71262;-25.924;28.194;2023-08-31T03:18:41;85539.72;;;19.83;43.71
55486;BME280;71262;-25.924;28.194;2023-08-31T03:21:05;85539.81;;;19.83;43.63
55486;BME280;71262;-25.924;28.194;2023-08-31T03:23:31;85538.73;;;19.78;43.72
55486;BME280;71262;-25.924;28.194;2023-08-31T03:25:56;85537.12;;;19.79;43.67
55486;BME280;71262;-25.924;28.194;2023-08-31T03:28:21;85535.76;;;19.49;43.73
55486;BME280;71262;-25.924;28.194;2023-08-31T03:30:46;85538.44;;;19.72;43.78
55486;BME280;71262;-25.924;28.194;2023-08-31T03:33:11;85537.99;;;19.71;43.83
55486;BME280;71262;-25.924;28.194;2023-08-31T03:35:37;85542.35;;;19.74;43.67
55486;BME280;71262;-25.924;28.194;2023-08-31T03:38:01;85542.14;;;19.75;43.60
55486;BME280;71262;-25.924;28.194;2023-08-31T03:40:26;85541.04;;;19.72;43.64
55486;BME280;71262;-25.924;28.194;2023-08-31T03:42:52;85541.09;;;19.69;43.64
55486;BME280;71262;-25.924;28.194;2023-08-31T03:45:17;85539.16;;;19.68;43.63
55486;BME280;71262;-25.924;28.194;2023-08-31T03:47:42;85544.05;;;19.69;43.56
55486;BME280;71262;-25.924;28.194;2023-08-31T03:50:08;85546.77;;;19.66;43.58
55486;BME280;71262;-25.924;28.194;2023-08-31T03:52:32;85545.40;;;19.64;43.57
55486;BME280;71262;-25.924;28.194;2023-08-31T03:54:58;85551.08;;;19.65;43.46
55486;BME280;71262;-25.924;28.194;2023-08-31T03:57:23;85554.03;;;19.82;43.52
55486;BME280;71262;-25.924;28.194;2023-08-31T03:59:48;85557.81;;;19.80;43.47
55486;BME280;71262;-25.924;28.194;2023-08-31T04:02:13;85560.99;;;19.59;43.43
55486;BME280;71262;-25.924;28.194;2023-08-31T04:04:38;85563.64;;;19.90;43.29
55486;BME280;71262;-25.924;28.194;2023-08-31T04:07:03;85566.04;;;19.67;43.26
55486;BME280;71262;-25.924;28.194;2023-08-31T04:09:28;85564.52;;;19.62;43.30
55486;BME280;71262;-25.924;28.194;2023-08-31T04:11:54;85564.14;;;19.60;43.27
55486;BME280;71262;-25.924;28.194;2023-08-31T04:14:19;85568.03;;;19.66;43.15
55486;BME280;71262;-25.924;28.194;2023-08-31T04:16:44;85573.19;;;19.66;43.05
55486;BME280;71262;-25.924;28.194;2023-08-31T04:19:10;85574.50;;;19.60;43.13
55486;BME280;71262;-25.924;28.194;2023-08-31T04:21:35;85576.83;;;19.62;43.00
55486;BME280;71262;-25.924;28.194;2023-08-31T04:24:00;85577.24;;;19.59;43.04
55486;BME280;71262;-25.924;28.194;2023-08-31T04:26:25;85580.99;;;19.62;42.96
55486;BME280;71262;-25.924;28.194;2023-08-31T04:28:50;85582.08;;;19.60;42.97
55486;BME280;71262;-25.924;28.194;2023-08-31T04:31:15;85582.90;;;19.54;43.01
55486;BME280;71262;-25.924;28.194;2023-08-31T04:33:40;85585.16;;;19.55;43.03
55486;BME280;71262;-25.924;28.194;2023-08-31T04:36:06;85583.16;;;19.60;42.95
55486;BME280;71262;-25.924;28.194;2023-08-31T04:38:30;85586.08;;;19.53;43.21
55486;BME280;71262;-25.924;28.194;2023-08-31T04:40:58;85587.95;;;19.67;42.95
55486;BME280;71262;-25.924;28.194;2023-08-31T04:43:20;85585.16;;;19.63;42.80
55486;BME280;71262;-25.924;28.194;2023-08-31T04:45:45;85587.90;;;19.59;43.07
55486;BME280;71262;-25.924;28.194;2023-08-31T04:48:11;85587.59;;;19.59;43.36
55486;BME280;71262;-25.924;28.194;2023-08-31T04:50:36;85590.37;;;19.58;43.69
55486;BME280;71262;-25.924;28.194;2023-08-31T04:53:01;85593.50;;;19.81;43.86
55486;BME280;71262;-25.924;28.194;2023-08-31T04:55:26;85598.17;;;19.68;43.90
55486;BME280;71262;-25.924;28.194;2023-08-31T04:57:51;85597.41;;;19.84;43.86
55486;BME280;71262;-25.924;28.194;2023-08-31T05:00:17;85600.13;;;19.87;44.08
55486;BME280;71262;-25.924;28.194;2023-08-31T05:02:41;85600.46;;;19.87;44.38
55486;BME280;71262;-25.924;28.194;2023-08-31T05:05:07;85603.69;;;19.94;44.56
55486;BME280;71262;-25.924;28.194;2023-08-31T05:07:31;85604.52;;;20.07;44.76
55486;BME280;71262;-25.924;28.194;2023-08-31T05:09:56;85606.97;;;20.08;45.13
55486;BME280;71262;-25.924;28.194;2023-08-31T05:12:22;85611.69;;;20.19;45.20
55486;BME280;71262;-25.924;28.194;2023-08-31T05:14:47;85614.72;;;19.90;45.38
55486;BME280;71262;-25.924;28.194;2023-08-31T05:17:12;85617.50;;;19.93;45.28
55486;BME280;71262;-25.924;28.194;2023-08-31T05:19:37;85620.28;;;20.32;45.17
55486;BME280;71262;-25.924;28.194;2023-08-31T05:22:03;85621.94;;;20.42;44.93
55486;BME280;71262;-25.924;28.194;2023-08-31T05:24:27;85621.04;;;20.51;44.67
55486;BME280;71262;-25.924;28.194;2023-08-31T05:26:52;85623.33;;;20.56;44.57
55486;BME280;71262;-25.924;28.194;2023-08-31T05:29:17;85624.18;;;20.62;44.52
55486;BME280;71262;-25.924;28.194;2023-08-31T05:31:42;85624.56;;;20.38;43.93
55486;BME280;71262;-25.924;28.194;2023-08-31T05:34:09;85627.01;;;20.42;44.07
55486;BME280;71262;-25.924;28.194;2023-08-31T05:36:32;85631.44;;;20.43;43.65
55486;BME280;71262;-25.924;28.194;2023-08-31T05:38:57;85636.95;;;20.94;43.17
55486;BME280;71262;-25.924;28.194;2023-08-31T05:41:22;85637.50;;;21.03;43.05
55486;BME280;71262;-25.924;28.194;2023-08-31T05:43:48;85637.77;;;20.67;43.01
55486;BME280;71262;-25.924;28.194;2023-08-31T05:46:13;85638.94;;;21.08;42.68
55486;BME280;71262;-25.924;28.194;2023-08-31T05:48:38;85641.11;;;20.96;42.65
55486;BME280;71262;-25.924;28.194;2023-08-31T05:51:03;85644.70;;;21.25;42.22
55486;BME280;71262;-25.924;28.194;2023-08-31T05:53:29;85647.47;;;21.44;41.53
55486;BME280;71262;-25.924;28.194;2023-08-31T05:55:56;85648.70;;;21.60;41.84
55486;BME280;71262;-25.924;28.194;2023-08-31T05:58:19;85650.22;;;21.52;41.52
55486;BME280;71262;-25.924;28.194;2023-08-31T06:00:44;85650.50;;;21.83;41.38
55486;BME280;71262;-25.924;28.194;2023-08-31T06:03:10;85651.91;;;21.63;41.34
55486;BME280;71262;-25.924;28.194;2023-08-31T06:05:35;85652.24;;;21.73;41.19
55486;BME280;71262;-25.924;28.194;2023-08-31T06:08:00;85657.61;;;21.99;41.07
55486;BME280;71262;-25.924;28.194;2023-08-31T06:10:25;85660.93;;;21.84;41.16
55486;BME280;71262;-25.924;28.194;2023-08-31T06:12:50;85662.18;;;21.68;40.65
55486;BME280;71262;-25.924;28.194;2023-08-31T06:15:16;85661.82;;;21.80;40.67
55486;BME280;71262;-25.924;28.194;2023-08-31T06:17:41;85663.50;;;22.10;40.39
55486;BME280;71262;-25.924;28.194;2023-08-31T06:20:13;85664.23;;;21.89;40.17
55486;BME280;71262;-25.924;28.194;2023-08-31T06:22:31;85666.06;;;22.16;40.10
55486;BME280;71262;-25.924;28.194;2023-08-31T06:24:57;85665.23;;;20.51;39.69
55486;BME280;71262;-25.924;28.194;2023-08-31T06:27:22;85657.27;;;22.45;38.65
55486;BME280;71262;-25.924;28.194;2023-08-31T06:29:48;85657.58;;;22.49;38.79
55486;BME280;71262;-25.924;28.194;2023-08-31T06:32:15;85663.98;;;22.61;38.96
55486;BME280;71262;-25.924;28.194;2023-08-31T06:34:40;85663.36;;;22.08;38.92
55486;BME280;71262;-25.924;28.194;2023-08-31T06:37:05;85660.33;;;22.62;38.75
55486;BME280;71262;-25.924;28.194;2023-08-31T06:39:30;85660.43;;;22.42;38.96
55486;BME280;71262;-25.924;28.194;2023-08-31T06:41:55;85656.57;;;22.45;38.87
55486;BME280;71262;-25.924;28.194;2023-08-31T06:44:21;85657.33;;;22.46;38.81
55486;BME280;71262;-25.924;28.194;2023-08-31T06:46:46;85654.18;;;22.52;38.72
55486;BME280;71262;-25.924;28.194;2023-08-31T06:49:12;85655.23;;;22.53;38.63
55486;BME280;71262;-25.924;28.194;2023-08-31T06:51:37;85651.48;;;22.40;38.53
55486;BME280;71262;-25.924;28.194;2023-08-31T06:54:03;85646.52;;;22.60;38.49
55486;BME280;71262;-25.924;28.194;2023-08-31T06:56:29;85644.61;;;22.72;38.34
55486;BME280;71262;-25.924;28.194;2023-08-31T06:58:55;85644.18;;;22.69;38.32
55486;BME280;71262;-25.924;28.194;2023-08-31T07:01:21;85641.22;;;22.82;38.12
55486;BME280;71262;-25.924;28.194;2023-08-31T07:03:47;85637.43;;;22.65;38.06
55486;BME280;71262;-25.924;28.194;2023-08-31T07:06:13;85638.30;;;22.73;37.92
55486;BME280;71262;-25.924;28.194;2023-08-31T07:08:38;85639.30;;;22.99;37.78
55486;BME280;71262;-25.924;28.194;2023-08-31T07:11:04;85637.39;;;22.99;37.71
55486;BME280;71262;-25.924;28.194;2023-08-31T07:13:30;85640.42;;;23.06;37.68
55486;BME280;71262;-25.924;28.194;2023-08-31T07:15:56;85642.42;;;22.64;37.45
55486;BME280;71262;-25.924;28.194;2023-08-31T07:18:22;85640.49;;;22.71;37.49
55486;BME280;71262;-25.924;28.194;2023-08-31T07:20:48;85639.86;;;22.99;37.28
55486;BME280;71262;-25.924;28.194;2023-08-31T07:23:14;85638.40;;;22.49;37.21
55486;BME280;71262;-25.924;28.194;2023-08-31T07:25:39;85634.26;;;23.00;37.21
55486;BME280;71262;-25.924;28.194;2023-08-31T07:28:05;85636.14;;;22.82;37.10
55486;BME280;71262;-25.924;28.194;2023-08-31T07:30:31;85634.85;;;22.84;37.03
55486;BME280;71262;-25.924;28.194;2023-08-31T07:32:57;85632.84;;;22.85;37.10
55486;BME280;71262;-25.924;28.194;2023-08-31T07:35:23;85633.77;;;22.85;37.10
55486;BME280;71262;-25.924;28.194;2023-08-31T07:37:49;85632.63;;;23.14;36.97
55486;BME280;71262;-25.924;28.194;2023-08-31T07:40:14;85638.10;;;23.04;36.89
55486;BME280;71262;-25.924;28.194;2023-08-31T07:42:39;85635.68;;;22.94;36.91
55486;BME280;71262;-25.924;28.194;2023-08-31T07:45:05;85639.06;;;23.05;36.81
55486;BME280;71262;-25.924;28.194;2023-08-31T07:47:29;85638.42;;;23.37;36.84
55486;BME280;71262;-25.924;28.194;2023-08-31T07:49:54;85638.21;;;23.15;36.89
55486;BME280;71262;-25.924;28.194;2023-08-31T07:52:19;85641.75;;;23.00;36.66
55486;BME280;71262;-25.924;28.194;2023-08-31T07:54:44;85641.58;;;23.08;36.31
55486;BME280;71262;-25.924;28.194;2023-08-31T07:57:09;85645.90;;;23.18;36.10
55486;BME280;71262;-25.924;28.194;2023-08-31T07:59:34;85641.01;;;23.22;36.23
55486;BME280;71262;-25.924;28.194;2023-08-31T08:01:59;85643.41;;;23.57;36.30
55486;BME280;71262;-25.924;28.194;2023-08-31T08:04:24;85643.60;;;22.84;36.40
55486;BME280;71262;-25.924;28.194;2023-08-31T08:06:50;85643.29;;;23.21;36.37
55486;BME280;71262;-25.924;28.194;2023-08-31T08:09:14;85642.29;;;23.26;36.25
55486;BME280;71262;-25.924;28.194;2023-08-31T08:11:40;85637.85;;;23.20;36.31
55486;BME280;71262;-25.924;28.194;2023-08-31T08:14:06;85633.99;;;23.21;36.24
55486;BME280;71262;-25.924;28.194;2023-08-31T08:16:32;85631.90;;;23.21;36.08
55486;BME280;71262;-25.924;28.194;2023-08-31T08:18:58;85628.07;;;23.26;35.90
55486;BME280;71262;-25.924;28.194;2023-08-31T08:21:24;85625.04;;;23.19;35.62
55486;BME280;71262;-25.924;28.194;2023-08-31T08:23:49;85624.66;;;23.18;36.16
55486;BME280;71262;-25.924;28.194;2023-08-31T08:26:15;85617.91;;;23.19;35.96
55486;BME280;71262;-25.924;28.194;2023-08-31T08:28:41;85615.04;;;23.49;35.87
55486;BME280;71262;-25.924;28.194;2023-08-31T08:31:07;85616.58;;;23.32;36.00
55486;BME280;71262;-25.924;28.194;2023-08-31T08:33:33;85612.40;;;23.28;35.79
55486;BME280;71262;-25.924;28.194;2023-08-31T08:35:58;85611.21;;;23.33;35.92
55486;BME280;71262;-25.924;28.194;2023-08-31T08:38:25;85608.93;;;23.32;36.01
55486;BME280;71262;-25.924;28.194;2023-08-31T08:40:50;85604.87;;;23.33;36.09
55486;BME280;71262;-25.924;28.194;2023-08-31T08:43:18;85600.39;;;23.36;35.80
55486;BME280;71262;-25.924;28.194;2023-08-31T08:45:44;85595.10;;;23.36;35.78
55486;BME280;71262;-25.924;28.194;2023-08-31T08:48:08;85593.64;;;23.34;35.75
55486;BME280;71262;-25.924;28.194;2023-08-31T08:50:35;85591.42;;;23.37;36.06
55486;BME280;71262;-25.924;28.194;2023-08-31T08:52:59;85586.93;;;23.34;35.93
55486;BME280;71262;-25.924;28.194;2023-08-31T08:55:25;85581.39;;;23.36;35.89
55486;BME280;71262;-25.924;28.194;2023-08-31T08:57:51;85576.16;;;23.34;35.97
55486;BME280;71262;-25.924;28.194;2023-08-31T09:00:16;85574.34;;;23.41;35.99
55486;BME280;71262;-25.924;28.194;2023-08-31T09:02:42;85570.91;;;23.36;36.09
55486;BME280;71262;-25.924;28.194;2023-08-31T09:05:08;85565.43;;;23.37;35.73
55486;BME280;71262;-25.924;28.194;2023-08-31T09:07:35;85560.75;;;23.22;35.60
55486;BME280;71262;-25.924;28.194;2023-08-31T09:10:00;85558.63;;;23.44;35.36
55486;BME280;71262;-25.924;28.194;2023-08-31T09:12:26;85554.33;;;23.60;35.81
55486;BME280;71262;-25.924;28.194;2023-08-31T09:14:57;85549.31;;;23.36;35.96
55486;BME280;71262;-25.924;28.194;2023-08-31T09:17:17;85543.89;;;23.37;35.89
55486;BME280;71262;-25.924;28.194;2023-08-31T09:19:43;85538.56;;;23.53;35.35
55486;BME280;71262;-25.924;28.194;2023-08-31T09:22:11;85536.15;;;23.40;35.47
55486;BME280;71262;-25.924;28.194;2023-08-31T09:24:40;85531.54;;;23.32;35.75
55486;BME280;71262;-25.924;28.194;2023-08-31T09:27:00;85526.88;;;23.31;36.06
55486;BME280;71262;-25.924;28.194;2023-08-31T09:29:25;85520.94;;;23.63;35.60
55486;BME280;71262;-25.924;28.194;2023-08-31T09:31:51;85513.58;;;23.33;35.67
55486;BME280;71262;-25.924;28.194;2023-08-31T09:34:17;85509.60;;;23.15;35.81
55486;BME280;71262;-25.924;28.194;2023-08-31T09:36:41;85505.93;;;23.62;35.96
55486;BME280;71262;-25.924;28.194;2023-08-31T09:39:07;85502.88;;;23.73;35.78
55486;BME280;71262;-25.924;28.194;2023-08-31T09:41:31;85498.56;;;23.35;35.85
55486;BME280;71262;-25.924;28.194;2023-08-31T09:43:56;85494.86;;;23.40;35.80
55486;BME280;71262;-25.924;28.194;2023-08-31T09:46:22;85489.20;;;23.60;35.82
55486;BME280;71262;-25.924;28.194;2023-08-31T09:48:47;85479.77;;;23.34;36.11
55486;BME280;71262;-25.924;28.194;2023-08-31T09:51:12;85475.81;;;23.39;36.06
55486;BME280;71262;-25.924;28.194;2023-08-31T09:53:38;85473.75;;;23.25;36.22
55486;BME280;71262;-25.924;28.194;2023-08-31T09:56:04;85465.28;;;23.12;36.36
55486;BME280;71262;-25.924;28.194;2023-08-31T09:58:29;85464.33;;;23.22;36.20
55486;BME280;71262;-25.924;28.194;2023-08-31T10:00:54;85461.53;;;23.24;36.26
55486;BME280;71262;-25.924;28.194;2023-08-31T10:03:21;85458.21;;;23.15;36.30
55486;BME280;71262;-25.924;28.194;2023-08-31T10:05:47;85455.84;;;23.02;36.53
55486;BME280;71262;-25.924;28.194;2023-08-31T10:08:11;85452.84;;;22.82;36.68
55486;BME280;71262;-25.924;28.194;2023-08-31T10:10:38;85449.74;;;23.05;36.76
55486;BME280;71262;-25.924;28.194;2023-08-31T10:13:04;85446.35;;;23.13;36.68
55486;BME280;71262;-25.924;28.194;2023-08-31T10:15:32;85440.66;;;23.00;36.85
55486;BME280;71262;-25.924;28.194;2023-08-31T10:17:54;85434.06;;;22.63;36.98
55486;BME280;71262;-25.924;28.194;2023-08-31T10:20:20;85434.46;;;23.12;37.05
55486;BME280;71262;-25.924;28.194;2023-08-31T10:22:46;85433.40;;;22.83;37.09
55486;BME280;71262;-25.924;28.194;2023-08-31T10:25:11;85429.29;;;23.07;37.04
55486;BME280;71262;-25.924;28.194;2023-08-31T10:27:40;85423.42;;;22.42;37.21
55486;BME280;71262;-25.924;28.194;2023-08-31T10:32:26;85414.33;;;22.98;37.15
55486;BME280;71262;-25.924;28.194;2023-08-31T10:37:20;85410.19;;;22.99;37.09
55486;BME280;71262;-25.924;28.194;2023-08-31T10:39:41;85405.89;;;23.09;36.87
55486;BME280;71262;-25.924;28.194;2023-08-31T10:42:06;85402.83;;;22.77;36.92
55486;BME280;71262;-25.924;28.194;2023-08-31T10:44:32;85397.95;;;22.89;36.54
55486;BME280;71262;-25.924;28.194;2023-08-31T10:46:59;85395.68;;;23.03;36.16
55486;BME280;71262;-25.924;28.194;2023-08-31T10:49:22;85391.08;;;23.04;35.83
55486;BME280;71262;-25.924;28.194;2023-08-31T10:51:47;85383.52;;;23.11;35.73
55486;BME280;71262;-25.924;28.194;2023-08-31T10:54:12;85382.99;;;22.81;35.82
55486;BME280;71262;-25.924;28.194;2023-08-31T10:56:52;85376.52;;;22.86;36.04
55486;BME280;71262;-25.924;28.194;2023-08-31T10:59:02;85374.06;;;22.92;36.01
55486;BME280;71262;-25.924;28.194;2023-08-31T11:03:58;85365.47;;;22.60;36.19
55486;BME280;71262;-25.924;28.194;2023-08-31T11:06:16;85359.41;;;22.77;36.25
55486;BME280;71262;-25.924;28.194;2023-08-31T11:08:41;85358.70;;;22.78;36.26
55486;BME280;71262;-25.924;28.194;2023-08-31T11:11:06;85354.25;;;22.72;36.36
55486;BME280;71262;-25.924;28.194;2023-08-31T11:13:31;85345.78;;;22.68;36.46
55486;BME280;71262;-25.924;28.194;2023-08-31T11:15:57;85340.81;;;22.44;36.49
55486;BME280;71262;-25.924;28.194;2023-08-31T11:18:22;85338.42;;;22.39;36.56
55486;BME280;71262;-25.924;28.194;2023-08-31T11:20:48;85335.15;;;22.50;36.47
55486;BME280;71262;-25.924;28.194;2023-08-31T11:23:13;85334.72;;;22.78;36.38
55486;BME280;71262;-25.924;28.194;2023-08-31T11:25:38;85328.56;;;22.65;36.54
55486;BME280;71262;-25.924;28.194;2023-08-31T11:28:05;85326.32;;;22.55;36.67
55486;BME280;71262;-25.924;28.194;2023-08-31T11:30:29;85322.29;;;22.54;36.70
55486;BME280;71262;-25.924;28.194;2023-08-31T11:32:54;85319.68;;;22.59;36.67
55486;BME280;71262;-25.924;28.194;2023-08-31T11:35:19;85322.27;;;22.52;36.76
55486;BME280;71262;-25.924;28.194;2023-08-31T11:37:44;85323.09;;;22.40;36.91
55486;BME280;71262;-25.924;28.194;2023-08-31T11:40:09;85319.94;;;22.43;36.89
55486;BME280;71262;-25.924;28.194;2023-08-31T11:42:33;85319.18;;;22.34;37.00
55486;BME280;71262;-25.924;28.194;2023-08-31T11:44:58;85313.06;;;22.39;36.97
55486;BME280;71262;-25.924;28.194;2023-08-31T11:47:23;85313.40;;;22.29;37.09
55486;BME280;71262;-25.924;28.194;2023-08-31T11:49:49;85313.59;;;22.31;37.09
55486;BME280;71262;-25.924;28.194;2023-08-31T11:52:14;85315.73;;;22.27;37.15
55486;BME280;71262;-25.924;28.194;2023-08-31T11:54:38;85309.54;;;22.15;37.31
55486;BME280;71262;-25.924;28.194;2023-08-31T11:57:04;85310.34;;;22.20;37.26
55486;BME280;71262;-25.924;28.194;2023-08-31T11:59:28;85305.85;;;22.15;37.34
55486;BME280;71262;-25.924;28.194;2023-08-31T12:01:53;85303.31;;;22.62;37.40
55486;BME280;71262;-25.924;28.194;2023-08-31T12:04:21;85306.11;;;22.11;37.45
55486;BME280;71262;-25.924;28.194;2023-08-31T12:06:47;85302.93;;;22.34;37.52
55486;BME280;71262;-25.924;28.194;2023-08-31T12:09:10;85295.76;;;22.00;37.64
55486;BME280;71262;-25.924;28.194;2023-08-31T12:11:33;85294.24;;;22.26;37.68
55486;BME280;71262;-25.924;28.194;2023-08-31T12:14:00;85289.44;;;22.15;37.88
55486;BME280;71262;-25.924;28.194;2023-08-31T12:16:23;85286.69;;;22.44;37.84
55486;BME280;71262;-25.924;28.194;2023-08-31T12:18:48;85285.86;;;22.00;37.80
55486;BME280;71262;-25.924;28.194;2023-08-31T12:21:13;85286.16;;;22.28;37.80
55486;BME280;71262;-25.924;28.194;2023-08-31T12:23:39;85288.79;;;22.03;37.81
55486;BME280;71262;-25.924;28.194;2023-08-31T12:26:06;85284.74;;;22.26;37.85
55486;BME280;71262;-25.924;28.194;2023-08-31T12:28:29;85283.05;;;22.26;37.87
55486;BME280;71262;-25.924;28.194;2023-08-31T12:30:54;85278.24;;;21.93;37.94
55486;BME280;71262;-25.924;28.194;2023-08-31T12:33:19;85278.78;;;21.92;37.96
55486;BME280;71262;-25.924;28.194;2023-08-31T12:35:44;85274.49;;;21.86;38.03